sensor_id;sensor_type;location;lat;lon;timestamp;pressure;altitude;pressure_sealevel;temperature
24160;BMP280;62385;41.594;23.808;2022-08-03T00:00:01;95589.16;;;21.63
24160;BMP280;62385;41.594;23.808;2022-08-03T00:02:26;95584.47;;;21.58
24160;BMP280;62385;41.594;23.808;2022-08-03T00:04:52;95577.66;;;21.21
24160;BMP280;62385;41.594;23.808;2022-08-03T00:07:17;95582.44;;;21.58
24160;BMP280;62385;41.594;23.808;2022-08-03T00:09:43;95580.09;;;21.63
24160;BMP280;62385;41.594;23.808;2022-08-03T00:12:09;95569.97;;;21.52
24160;BMP280;62385;41.594;23.808;2022-08-03T00:14:35;95567.22;;;21.33
24160;BMP280;62385;41.594;23.808;2022-08-03T00:17:00;95579.91;;;21.03
24160;BMP280;62385;41.594;23.808;2022-08-03T00:19:26;95583.00;;;21.13
24160;BMP280;62385;41.594;23.808;2022-08-03T00:21:52;95589.91;;;21.06
24160;BMP280;62385;41.594;23.808;2022-08-03T00:24:18;95576.53;;;21.11
24160;BMP280;62385;41.594;23.808;2022-08-03T00:26:44;95567.09;;;21.00
24160;BMP280;62385;41.594;23.808;2022-08-03T00:29:10;95569.78;;;21.25
24160;BMP280;62385;41.594;23.808;2022-08-03T00:31:35;95586.78;;;21.35
24160;BMP280;62385;41.594;23.808;2022-08-03T00:34:01;95571.22;;;20.94
24160;BMP280;62385;41.594;23.808;2022-08-03T00:36:27;95584.03;;;20.91
24160;BMP280;62385;41.594;23.808;2022-08-03T00:38:52;95572.72;;;20.95
24160;BMP280;62385;41.594;23.808;2022-08-03T00:41:18;95565.38;;;20.97
24160;BMP280;62385;41.594;23.808;2022-08-03T00:43:43;95583.84;;;20.64
24160;BMP280;62385;41.594;23.808;2022-08-03T00:46:09;95588.31;;;20.67
24160;BMP280;62385;41.594;23.808;2022-08-03T00:48:35;95569.63;;;20.54
24160;BMP280;62385;41.594;23.808;2022-08-03T00:51:01;95579.50;;;20.69
24160;BMP280;62385;41.594;23.808;2022-08-03T00:53:27;95599.47;;;20.56
24160;BMP280;62385;41.594;23.808;2022-08-03T00:55:52;95591.84;;;20.43
24160;BMP280;62385;41.594;23.808;2022-08-03T00:58:18;95575.34;;;20.01
24160;BMP280;62385;41.594;23.808;2022-08-03T01:00:44;95582.38;;;20.02
24160;BMP280;62385;41.594;23.808;2022-08-03T01:03:10;95569.16;;;20.20
24160;BMP280;62385;41.594;23.808;2022-08-03T01:06:03;95578.53;;;20.41
24160;BMP280;62385;41.594;23.808;2022-08-03T01:11:09;95593.22;;;20.80
24160;BMP280;62385;41.594;23.808;2022-08-03T01:14:02;95588.97;;;20.24
24160;BMP280;62385;41.594;23.808;2022-08-03T01:16:58;95580.63;;;20.60
24160;BMP280;62385;41.594;23.808;2022-08-03T01:28:01;95581.97;;;20.48
24160;BMP280;62385;41.594;23.808;2022-08-03T01:30:35;95577.84;;;19.99
24160;BMP280;62385;41.594;23.808;2022-08-03T01:33:11;95580.41;;;19.97
24160;BMP280;62385;41.594;23.808;2022-08-03T01:35:45;95586.06;;;19.74
24160;BMP280;62385;41.594;23.808;2022-08-03T01:38:24;95584.13;;;20.00
24160;BMP280;62385;41.594;23.808;2022-08-03T01:40:53;95581.00;;;20.45
24160;BMP280;62385;41.594;23.808;2022-08-03T01:43:24;95572.34;;;20.60
24160;BMP280;62385;41.594;23.808;2022-08-03T01:45:53;95565.84;;;20.27
24160;BMP280;62385;41.594;23.808;2022-08-03T01:48:20;95586.09;;;20.35
24160;BMP280;62385;41.594;23.808;2022-08-03T01:50:47;95569.50;;;20.41
24160;BMP280;62385;41.594;23.808;2022-08-03T01:53:15;95578.59;;;20.61
24160;BMP280;62385;41.594;23.808;2022-08-03T01:55:46;95581.16;;;20.53
24160;BMP280;62385;41.594;23.808;2022-08-03T01:58:14;95579.41;;;20.55
24160;BMP280;62385;41.594;23.808;2022-08-03T02:00:42;95575.88;;;20.55
24160;BMP280;62385;41.594;23.808;2022-08-03T02:03:11;95575.28;;;20.43
24160;BMP280;62385;41.594;23.808;2022-08-03T02:05:38;95578.88;;;20.32
24160;BMP280;62385;41.594;23.808;2022-08-03T02:08:07;95585.25;;;20.16
24160;BMP280;62385;41.594;23.808;2022-08-03T02:10:36;95568.25;;;20.12
24160;BMP280;62385;41.594;23.808;2022-08-03T02:13:04;95575.91;;;20.24
24160;BMP280;62385;41.594;23.808;2022-08-03T02:15:32;95574.59;;;20.31
24160;BMP280;62385;41.594;23.808;2022-08-03T02:18:01;95580.19;;;20.25
24160;BMP280;62385;41.594;23.808;2022-08-03T02:20:28;95579.88;;;19.99
24160;BMP280;62385;41.594;23.808;2022-08-03T02:22:57;95573.06;;;19.69
24160;BMP280;62385;41.594;23.808;2022-08-03T02:25:23;95582.50;;;19.85
24160;BMP280;62385;41.594;23.808;2022-08-03T02:28:11;95582.59;;;19.68
24160;BMP280;62385;41.594;23.808;2022-08-03T02:30:42;95584.19;;;19.52
24160;BMP280;62385;41.594;23.808;2022-08-03T02:33:15;95585.66;;;19.59
24160;BMP280;62385;41.594;23.808;2022-08-03T02:35:42;95586.38;;;19.65
24160;BMP280;62385;41.594;23.808;2022-08-03T02:38:10;95582.34;;;19.72
24160;BMP280;62385;41.594;23.808;2022-08-03T02:40:39;95579.19;;;19.51
24160;BMP280;62385;41.594;23.808;2022-08-03T02:43:28;95568.22;;;19.39
24160;BMP280;62385;41.594;23.808;2022-08-03T02:45:54;95567.13;;;19.01
24160;BMP280;62385;41.594;23.808;2022-08-03T02:48:26;95584.88;;;19.17
24160;BMP280;62385;41.594;23.808;2022-08-03T02:50:54;95583.56;;;19.23
24160;BMP280;62385;41.594;23.808;2022-08-03T02:53:22;95573.06;;;19.22
24160;BMP280;62385;41.594;23.808;2022-08-03T02:55:49;95571.16;;;18.88
24160;BMP280;62385;41.594;23.808;2022-08-03T02:58:17;95561.38;;;18.99
24160;BMP280;62385;41.594;23.808;2022-08-03T03:01:04;95575.28;;;19.29
24160;BMP280;62385;41.594;23.808;2022-08-03T03:03:30;95566.81;;;19.21
24160;BMP280;62385;41.594;23.808;2022-08-03T03:05:56;95585.28;;;19.32
24160;BMP280;62385;41.594;23.808;2022-08-03T03:08:23;95581.81;;;19.26
24160;BMP280;62385;41.594;23.808;2022-08-03T03:10:49;95587.56;;;19.28
24160;BMP280;62385;41.594;23.808;2022-08-03T03:13:16;95589.84;;;19.18
24160;BMP280;62385;41.594;23.808;2022-08-03T03:15:43;95583.66;;;18.89
24160;BMP280;62385;41.594;23.808;2022-08-03T03:18:11;95582.06;;;19.28
24160;BMP280;62385;41.594;23.808;2022-08-03T03:20:37;95592.84;;;19.26
24160;BMP280;62385;41.594;23.808;2022-08-03T03:23:05;95577.84;;;19.16
24160;BMP280;62385;41.594;23.808;2022-08-03T03:25:32;95592.19;;;19.56
24160;BMP280;62385;41.594;23.808;2022-08-03T03:28:01;95583.97;;;19.45
24160;BMP280;62385;41.594;23.808;2022-08-03T03:30:28;95597.56;;;19.37
24160;BMP280;62385;41.594;23.808;2022-08-03T03:32:56;95591.19;;;19.95
24160;BMP280;62385;41.594;23.808;2022-08-03T03:35:41;95601.66;;;19.72
24160;BMP280;62385;41.594;23.808;2022-08-03T03:38:08;95601.06;;;19.85
24160;BMP280;62385;41.594;23.808;2022-08-03T03:40:35;95608.94;;;20.00
24160;BMP280;62385;41.594;23.808;2022-08-03T03:43:02;95614.41;;;20.11
24160;BMP280;62385;41.594;23.808;2022-08-03T03:45:30;95608.59;;;19.79
24160;BMP280;62385;41.594;23.808;2022-08-03T03:47:58;95613.31;;;19.89
24160;BMP280;62385;41.594;23.808;2022-08-03T03:50:24;95622.00;;;20.05
24160;BMP280;62385;41.594;23.808;2022-08-03T03:52:51;95611.06;;;19.88
24160;BMP280;62385;41.594;23.808;2022-08-03T03:55:17;95615.47;;;20.02
24160;BMP280;62385;41.594;23.808;2022-08-03T03:57:43;95635.50;;;20.08
24160;BMP280;62385;41.594;23.808;2022-08-03T04:00:10;95628.38;;;20.19
24160;BMP280;62385;41.594;23.808;2022-08-03T04:02:38;95621.63;;;20.20
24160;BMP280;62385;41.594;23.808;2022-08-03T04:05:04;95611.19;;;20.07
24160;BMP280;62385;41.594;23.808;2022-08-03T04:07:56;95613.66;;;20.11
24160;BMP280;62385;41.594;23.808;2022-08-03T04:10:42;95606.91;;;20.42
24160;BMP280;62385;41.594;23.808;2022-08-03T04:13:39;95630.88;;;20.53
24160;BMP280;62385;41.594;23.808;2022-08-03T04:16:06;95631.88;;;20.25
24160;BMP280;62385;41.594;23.808;2022-08-03T04:18:36;95619.94;;;20.11
24160;BMP280;62385;41.594;23.808;2022-08-03T04:21:07;95614.41;;;20.41
24160;BMP280;62385;41.594;23.808;2022-08-03T04:23:36;95633.09;;;20.60
24160;BMP280;62385;41.594;23.808;2022-08-03T04:26:07;95617.91;;;20.72
24160;BMP280;62385;41.594;23.808;2022-08-03T04:28:36;95631.31;;;21.31
24160;BMP280;62385;41.594;23.808;2022-08-03T04:31:05;95636.56;;;21.54
24160;BMP280;62385;41.594;23.808;2022-08-03T04:33:33;95629.84;;;21.49
24160;BMP280;62385;41.594;23.808;2022-08-03T04:36:00;95620.34;;;21.45
24160;BMP280;62385;41.594;23.808;2022-08-03T04:38:30;95638.06;;;21.55
24160;BMP280;62385;41.594;23.808;2022-08-03T04:40:58;95630.19;;;21.59
24160;BMP280;62385;41.594;23.808;2022-08-03T04:43:24;95630.59;;;21.50
24160;BMP280;62385;41.594;23.808;2022-08-03T04:45:51;95633.56;;;21.71
24160;BMP280;62385;41.594;23.808;2022-08-03T04:48:19;95635.66;;;21.84
24160;BMP280;62385;41.594;23.808;2022-08-03T04:50:45;95634.47;;;21.60
24160;BMP280;62385;41.594;23.808;2022-08-03T04:53:13;95640.88;;;21.68
24160;BMP280;62385;41.594;23.808;2022-08-03T04:55:38;95638.06;;;21.74
24160;BMP280;62385;41.594;23.808;2022-08-03T04:58:04;95632.97;;;21.78
24160;BMP280;62385;41.594;23.808;2022-08-03T05:00:30;95646.28;;;21.99
24160;BMP280;62385;41.594;23.808;2022-08-03T05:02:56;95631.84;;;21.68
24160;BMP280;62385;41.594;23.808;2022-08-03T05:05:22;95627.88;;;21.82
24160;BMP280;62385;41.594;23.808;2022-08-03T05:07:48;95641.19;;;22.03
24160;BMP280;62385;41.594;23.808;2022-08-03T05:10:14;95629.28;;;21.89
24160;BMP280;62385;41.594;23.808;2022-08-03T05:12:42;95625.03;;;21.88
24160;BMP280;62385;41.594;23.808;2022-08-03T05:15:08;95632.69;;;22.14
24160;BMP280;62385;41.594;23.808;2022-08-03T05:17:34;95634.00;;;21.94
24160;BMP280;62385;41.594;23.808;2022-08-03T05:20:02;95635.16;;;22.18
24160;BMP280;62385;41.594;23.808;2022-08-03T05:22:31;95628.78;;;22.36
24160;BMP280;62385;41.594;23.808;2022-08-03T05:24:57;95614.84;;;22.42
24160;BMP280;62385;41.594;23.808;2022-08-03T05:27:23;95619.25;;;22.64
24160;BMP280;62385;41.594;23.808;2022-08-03T05:29:49;95628.84;;;22.76
24160;BMP280;62385;41.594;23.808;2022-08-03T05:32:15;95629.47;;;22.69
24160;BMP280;62385;41.594;23.808;2022-08-03T05:34:41;95630.34;;;22.91
24160;BMP280;62385;41.594;23.808;2022-08-03T05:37:08;95628.22;;;22.97
24160;BMP280;62385;41.594;23.808;2022-08-03T05:39:35;95635.34;;;22.92
24160;BMP280;62385;41.594;23.808;2022-08-03T05:42:01;95642.94;;;22.92
24160;BMP280;62385;41.594;23.808;2022-08-03T05:44:26;95626.50;;;22.81
24160;BMP280;62385;41.594;23.808;2022-08-03T05:46:53;95636.31;;;22.95
24160;BMP280;62385;41.594;23.808;2022-08-03T05:49:19;95655.06;;;23.16
24160;BMP280;62385;41.594;23.808;2022-08-03T05:51:45;95655.78;;;23.30
24160;BMP280;62385;41.594;23.808;2022-08-03T05:54:10;95643.97;;;23.29
24160;BMP280;62385;41.594;23.808;2022-08-03T05:56:36;95645.44;;;23.43
24160;BMP280;62385;41.594;23.808;2022-08-03T05:59:02;95653.09;;;23.37
24160;BMP280;62385;41.594;23.808;2022-08-03T06:01:28;95651.50;;;23.76
24160;BMP280;62385;41.594;23.808;2022-08-03T06:03:56;95649.03;;;23.52
24160;BMP280;62385;41.594;23.808;2022-08-03T06:06:22;95653.75;;;23.43
24160;BMP280;62385;41.594;23.808;2022-08-03T06:08:48;95642.25;;;23.26
24160;BMP280;62385;41.594;23.808;2022-08-03T06:11:14;95639.72;;;23.01
24160;BMP280;62385;41.594;23.808;2022-08-03T06:13:41;95643.78;;;23.14
24160;BMP280;62385;41.594;23.808;2022-08-03T06:16:08;95644.81;;;23.10
24160;BMP280;62385;41.594;23.808;2022-08-03T06:18:35;95651.00;;;23.17
24160;BMP280;62385;41.594;23.808;2022-08-03T06:21:00;95650.38;;;23.24
24160;BMP280;62385;41.594;23.808;2022-08-03T06:23:26;95653.47;;;23.07
24160;BMP280;62385;41.594;23.808;2022-08-03T06:25:52;95654.31;;;22.88
24160;BMP280;62385;41.594;23.808;2022-08-03T06:28:17;95642.38;;;22.80
24160;BMP280;62385;41.594;23.808;2022-08-03T06:31:02;95656.47;;;23.09
24160;BMP280;62385;41.594;23.808;2022-08-03T06:33:28;95648.44;;;23.19
24160;BMP280;62385;41.594;23.808;2022-08-03T06:35:54;95651.78;;;23.65
24160;BMP280;62385;41.594;23.808;2022-08-03T06:40:46;95640.63;;;23.44
24160;BMP280;62385;41.594;23.808;2022-08-03T06:43:11;95640.84;;;23.46
24160;BMP280;62385;41.594;23.808;2022-08-03T06:45:39;95639.88;;;23.43
24160;BMP280;62385;41.594;23.808;2022-08-03T06:50:31;95642.00;;;23.85
24160;BMP280;62385;41.594;23.808;2022-08-03T06:52:59;95638.94;;;23.97
24160;BMP280;62385;41.594;23.808;2022-08-03T06:55:24;95631.81;;;23.88
24160;BMP280;62385;41.594;23.808;2022-08-03T06:57:51;95641.38;;;23.44
24160;BMP280;62385;41.594;23.808;2022-08-03T07:00:17;95631.59;;;23.65
24160;BMP280;62385;41.594;23.808;2022-08-03T07:02:44;95644.09;;;23.58
24160;BMP280;62385;41.594;23.808;2022-08-03T07:05:10;95640.47;;;23.50
24160;BMP280;62385;41.594;23.808;2022-08-03T07:07:36;95644.63;;;23.56
24160;BMP280;62385;41.594;23.808;2022-08-03T07:10:03;95643.41;;;23.78
24160;BMP280;62385;41.594;23.808;2022-08-03T07:12:31;95634.09;;;23.89
24160;BMP280;62385;41.594;23.808;2022-08-03T07:14:58;95634.09;;;23.89
24160;BMP280;62385;41.594;23.808;2022-08-03T07:17:24;95651.66;;;24.13
24160;BMP280;62385;41.594;23.808;2022-08-03T07:19:49;95640.16;;;24.09
24160;BMP280;62385;41.594;23.808;2022-08-03T07:22:15;95653.63;;;24.76
24160;BMP280;62385;41.594;23.808;2022-08-03T07:24:41;95638.94;;;25.04
24160;BMP280;62385;41.594;23.808;2022-08-03T07:27:07;95652.63;;;25.31
24160;BMP280;62385;41.594;23.808;2022-08-03T07:29:34;95654.63;;;25.30
24160;BMP280;62385;41.594;23.808;2022-08-03T07:32:00;95643.41;;;25.07
24160;BMP280;62385;41.594;23.808;2022-08-03T07:34:25;95645.41;;;25.36
24160;BMP280;62385;41.594;23.808;2022-08-03T07:36:52;95633.28;;;25.25
24160;BMP280;62385;41.594;23.808;2022-08-03T07:39:18;95640.28;;;25.11
24160;BMP280;62385;41.594;23.808;2022-08-03T07:41:44;95644.31;;;24.66
24160;BMP280;62385;41.594;23.808;2022-08-03T07:44:10;95629.53;;;25.15
24160;BMP280;62385;41.594;23.808;2022-08-03T07:46:35;95636.28;;;25.35
24160;BMP280;62385;41.594;23.808;2022-08-03T07:49:02;95642.06;;;25.37
24160;BMP280;62385;41.594;23.808;2022-08-03T07:51:27;95634.34;;;25.59
24160;BMP280;62385;41.594;23.808;2022-08-03T07:53:53;95617.78;;;25.01
24160;BMP280;62385;41.594;23.808;2022-08-03T07:56:22;95629.41;;;24.84
24160;BMP280;62385;41.594;23.808;2022-08-03T07:58:50;95622.31;;;25.12
24160;BMP280;62385;41.594;23.808;2022-08-03T08:01:16;95620.56;;;25.01
24160;BMP280;62385;41.594;23.808;2022-08-03T08:03:44;95625.41;;;25.53
24160;BMP280;62385;41.594;23.808;2022-08-03T08:06:10;95623.75;;;25.65
24160;BMP280;62385;41.594;23.808;2022-08-03T08:08:37;95625.72;;;25.34
24160;BMP280;62385;41.594;23.808;2022-08-03T08:11:03;95627.47;;;25.60
24160;BMP280;62385;41.594;23.808;2022-08-03T08:13:29;95613.91;;;25.64
24160;BMP280;62385;41.594;23.808;2022-08-03T08:16:12;95626.16;;;25.61
24160;BMP280;62385;41.594;23.808;2022-08-03T08:18:38;95622.81;;;25.70
24160;BMP280;62385;41.594;23.808;2022-08-03T08:21:03;95614.84;;;25.74
24160;BMP280;62385;41.594;23.808;2022-08-03T08:23:47;95618.94;;;25.65
24160;BMP280;62385;41.594;23.808;2022-08-03T08:26:13;95625.84;;;25.88
24160;BMP280;62385;41.594;23.808;2022-08-03T08:28:38;95616.94;;;25.97
24160;BMP280;62385;41.594;23.808;2022-08-03T08:31:04;95619.50;;;25.79
24160;BMP280;62385;41.594;23.808;2022-08-03T08:33:30;95606.88;;;25.78
24160;BMP280;62385;41.594;23.808;2022-08-03T08:35:56;95603.34;;;25.78
24160;BMP280;62385;41.594;23.808;2022-08-03T08:38:21;95587.22;;;25.92
24160;BMP280;62385;41.594;23.808;2022-08-03T08:41:07;95609.84;;;26.11
24160;BMP280;62385;41.594;23.808;2022-08-03T08:43:34;95602.63;;;26.08
24160;BMP280;62385;41.594;23.808;2022-08-03T08:46:00;95603.19;;;26.07
24160;BMP280;62385;41.594;23.808;2022-08-03T08:48:45;95597.63;;;25.99
24160;BMP280;62385;41.594;23.808;2022-08-03T08:51:12;95591.28;;;26.06
24160;BMP280;62385;41.594;23.808;2022-08-03T08:53:42;95600.94;;;26.44
24160;BMP280;62385;41.594;23.808;2022-08-03T08:56:12;95597.78;;;26.96
24160;BMP280;62385;41.594;23.808;2022-08-03T08:58:46;95603.63;;;27.15
24160;BMP280;62385;41.594;23.808;2022-08-03T09:01:12;95584.44;;;26.86
24160;BMP280;62385;41.594;23.808;2022-08-03T09:03:40;95595.34;;;27.41
24160;BMP280;62385;41.594;23.808;2022-08-03T09:06:06;95591.06;;;27.65
24160;BMP280;62385;41.594;23.808;2022-08-03T09:08:32;95596.88;;;27.84
24160;BMP280;62385;41.594;23.808;2022-08-03T09:10:58;95595.66;;;27.45
24160;BMP280;62385;41.594;23.808;2022-08-03T09:13:24;95588.38;;;27.74
24160;BMP280;62385;41.594;23.808;2022-08-03T09:16:16;95584.47;;;28.20
24160;BMP280;62385;41.594;23.808;2022-08-03T09:18:46;95590.41;;;28.24
24160;BMP280;62385;41.594;23.808;2022-08-03T09:23:54;95584.31;;;28.36
24160;BMP280;62385;41.594;23.808;2022-08-03T09:26:26;95572.03;;;28.31
24160;BMP280;62385;41.594;23.808;2022-08-03T09:33:57;95577.97;;;29.25
24160;BMP280;62385;41.594;23.808;2022-08-03T09:39:17;95559.28;;;29.00
24160;BMP280;62385;41.594;23.808;2022-08-03T09:41:48;95568.13;;;28.96
24160;BMP280;62385;41.594;23.808;2022-08-03T09:44:35;95564.84;;;29.18
24160;BMP280;62385;41.594;23.808;2022-08-03T09:47:03;95550.34;;;28.84
24160;BMP280;62385;41.594;23.808;2022-08-03T09:49:28;95553.16;;;28.84
24160;BMP280;62385;41.594;23.808;2022-08-03T09:52:18;95545.50;;;29.12
24160;BMP280;62385;41.594;23.808;2022-08-03T09:54:51;95561.09;;;29.42
24160;BMP280;62385;41.594;23.808;2022-08-03T09:57:22;95558.25;;;29.79
24160;BMP280;62385;41.594;23.808;2022-08-03T09:59:49;95553.75;;;30.03
24160;BMP280;62385;41.594;23.808;2022-08-03T10:02:23;95554.44;;;29.75
24160;BMP280;62385;41.594;23.808;2022-08-03T10:05:10;95536.47;;;29.88
24160;BMP280;62385;41.594;23.808;2022-08-03T10:07:47;95531.75;;;29.33
24160;BMP280;62385;41.594;23.808;2022-08-03T10:10:14;95534.31;;;29.12
24160;BMP280;62385;41.594;23.808;2022-08-03T10:12:40;95539.91;;;29.12
24160;BMP280;62385;41.594;23.808;2022-08-03T10:15:07;95537.41;;;29.16
24160;BMP280;62385;41.594;23.808;2022-08-03T10:17:33;95517.91;;;28.71
24160;BMP280;62385;41.594;23.808;2022-08-03T10:19:58;95534.69;;;28.54
24160;BMP280;62385;41.594;23.808;2022-08-03T10:22:31;95525.06;;;28.47
24160;BMP280;62385;41.594;23.808;2022-08-03T10:25:11;95537.25;;;28.59
24160;BMP280;62385;41.594;23.808;2022-08-03T10:27:40;95536.53;;;28.86
24160;BMP280;62385;41.594;23.808;2022-08-03T10:30:08;95536.13;;;28.90
24160;BMP280;62385;41.594;23.808;2022-08-03T10:32:43;95531.22;;;28.81
24160;BMP280;62385;41.594;23.808;2022-08-03T10:35:29;95535.25;;;28.70
24160;BMP280;62385;41.594;23.808;2022-08-03T10:38:01;95543.09;;;28.71
24160;BMP280;62385;41.594;23.808;2022-08-03T10:40:31;95535.88;;;28.78
24160;BMP280;62385;41.594;23.808;2022-08-03T10:43:06;95533.22;;;28.00
24160;BMP280;62385;41.594;23.808;2022-08-03T10:45:40;95551.41;;;28.44
24160;BMP280;62385;41.594;23.808;2022-08-03T10:48:06;95544.34;;;27.65
24160;BMP280;62385;41.594;23.808;2022-08-03T10:50:32;95540.47;;;27.35
24160;BMP280;62385;41.594;23.808;2022-08-03T10:53:05;95544.56;;;27.60
24160;BMP280;62385;41.594;23.808;2022-08-03T10:55:36;95537.63;;;27.43
24160;BMP280;62385;41.594;23.808;2022-08-03T10:58:53;95545.63;;;28.07
24160;BMP280;62385;41.594;23.808;2022-08-03T11:01:49;95532.47;;;28.70
24160;BMP280;62385;41.594;23.808;2022-08-03T11:04:18;95507.91;;;28.78
24160;BMP280;62385;41.594;23.808;2022-08-03T11:06:44;95524.13;;;29.44
24160;BMP280;62385;41.594;23.808;2022-08-03T11:11:41;95520.25;;;30.35
24160;BMP280;62385;41.594;23.808;2022-08-03T11:16:37;95508.69;;;29.15
24160;BMP280;62385;41.594;23.808;2022-08-03T11:19:09;95505.38;;;30.13
24160;BMP280;62385;41.594;23.808;2022-08-03T11:27:32;95509.59;;;28.91
24160;BMP280;62385;41.594;23.808;2022-08-03T11:30:05;95505.16;;;29.15
24160;BMP280;62385;41.594;23.808;2022-08-03T11:40:47;95499.75;;;29.27
24160;BMP280;62385;41.594;23.808;2022-08-03T11:46:03;95507.28;;;30.30
24160;BMP280;62385;41.594;23.808;2022-08-03T11:48:35;95485.72;;;30.42
24160;BMP280;62385;41.594;23.808;2022-08-03T11:51:02;95493.69;;;29.87
24160;BMP280;62385;41.594;23.808;2022-08-03T11:53:28;95484.09;;;30.29
24160;BMP280;62385;41.594;23.808;2022-08-03T11:55:58;95481.00;;;30.15
24160;BMP280;62385;41.594;23.808;2022-08-03T11:58:25;95485.28;;;30.26
24160;BMP280;62385;41.594;23.808;2022-08-03T12:00:51;95478.34;;;30.37
24160;BMP280;62385;41.594;23.808;2022-08-03T12:03:18;95484.50;;;30.55
24160;BMP280;62385;41.594;23.808;2022-08-03T12:05:51;95479.22;;;31.22
24160;BMP280;62385;41.594;23.808;2022-08-03T12:08:28;95486.22;;;31.42
24160;BMP280;62385;41.594;23.808;2022-08-03T12:10:57;95474.22;;;30.89
24160;BMP280;62385;41.594;23.808;2022-08-03T12:13:23;95474.88;;;30.78
24160;BMP280;62385;41.594;23.808;2022-08-03T12:15:54;95469.94;;;31.84
24160;BMP280;62385;41.594;23.808;2022-08-03T12:18:22;95473.38;;;31.82
24160;BMP280;62385;41.594;23.808;2022-08-03T12:20:49;95468.81;;;31.99
24160;BMP280;62385;41.594;23.808;2022-08-03T12:23:16;95465.81;;;31.85
24160;BMP280;62385;41.594;23.808;2022-08-03T12:25:43;95460.41;;;31.77
24160;BMP280;62385;41.594;23.808;2022-08-03T12:28:18;95464.16;;;31.27
24160;BMP280;62385;41.594;23.808;2022-08-03T12:30:50;95459.06;;;31.35
24160;BMP280;62385;41.594;23.808;2022-08-03T12:35:46;95466.25;;;30.75
24160;BMP280;62385;41.594;23.808;2022-08-03T12:38:12;95471.19;;;30.55
24160;BMP280;62385;41.594;23.808;2022-08-03T12:40:38;95471.25;;;29.87
24160;BMP280;62385;41.594;23.808;2022-08-03T12:43:13;95478.63;;;29.82
24160;BMP280;62385;41.594;23.808;2022-08-03T12:45:39;95481.19;;;28.67
24160;BMP280;62385;41.594;23.808;2022-08-03T12:48:08;95487.75;;;28.52
24160;BMP280;62385;41.594;23.808;2022-08-03T12:50:38;95483.56;;;28.43
24160;BMP280;62385;41.594;23.808;2022-08-03T12:53:06;95478.81;;;28.36
24160;BMP280;62385;41.594;23.808;2022-08-03T12:55:32;95489.75;;;28.69
24160;BMP280;62385;41.594;23.808;2022-08-03T12:57:59;95494.91;;;27.76
24160;BMP280;62385;41.594;23.808;2022-08-03T13:00:25;95503.41;;;27.85
24160;BMP280;62385;41.594;23.808;2022-08-03T13:03:03;95515.31;;;27.61
24160;BMP280;62385;41.594;23.808;2022-08-03T13:05:30;95512.38;;;27.33
24160;BMP280;62385;41.594;23.808;2022-08-03T13:07:57;95512.16;;;27.39
24160;BMP280;62385;41.594;23.808;2022-08-03T13:10:28;95501.38;;;27.10
24160;BMP280;62385;41.594;23.808;2022-08-03T13:12:54;95517.72;;;27.14
24160;BMP280;62385;41.594;23.808;2022-08-03T13:15:22;95523.88;;;26.72
24160;BMP280;62385;41.594;23.808;2022-08-03T13:17:48;95520.00;;;26.03
24160;BMP280;62385;41.594;23.808;2022-08-03T13:20:13;95529.63;;;25.94
24160;BMP280;62385;41.594;23.808;2022-08-03T13:22:40;95518.13;;;25.36
24160;BMP280;62385;41.594;23.808;2022-08-03T13:25:07;95508.81;;;25.18
24160;BMP280;62385;41.594;23.808;2022-08-03T13:27:32;95530.91;;;24.35
24160;BMP280;62385;41.594;23.808;2022-08-03T13:29:58;95544.19;;;23.79
24160;BMP280;62385;41.594;23.808;2022-08-03T13:32:24;95553.16;;;23.64
24160;BMP280;62385;41.594;23.808;2022-08-03T13:34:49;95548.53;;;23.88
24160;BMP280;62385;41.594;23.808;2022-08-03T13:37:15;95533.91;;;23.87
24160;BMP280;62385;41.594;23.808;2022-08-03T13:39:41;95557.81;;;23.69
24160;BMP280;62385;41.594;23.808;2022-08-03T13:42:07;95544.47;;;23.89
24160;BMP280;62385;41.594;23.808;2022-08-03T13:44:33;95556.13;;;23.87
24160;BMP280;62385;41.594;23.808;2022-08-03T13:46:58;95541.34;;;24.14
24160;BMP280;62385;41.594;23.808;2022-08-03T13:49:28;95544.25;;;24.08
24160;BMP280;62385;41.594;23.808;2022-08-03T13:51:55;95536.47;;;24.06
24160;BMP280;62385;41.594;23.808;2022-08-03T13:54:21;95540.72;;;23.78
24160;BMP280;62385;41.594;23.808;2022-08-03T13:56:46;95534.56;;;24.01
24160;BMP280;62385;41.594;23.808;2022-08-03T13:59:21;95542.38;;;24.03
24160;BMP280;62385;41.594;23.808;2022-08-03T14:01:48;95537.22;;;24.07
24160;BMP280;62385;41.594;23.808;2022-08-03T14:04:14;95536.31;;;24.12
24160;BMP280;62385;41.594;23.808;2022-08-03T14:06:39;95532.75;;;24.69
24160;BMP280;62385;41.594;23.808;2022-08-03T14:09:05;95534.97;;;24.63
24160;BMP280;62385;41.594;23.808;2022-08-03T14:11:31;95530.91;;;24.35
24160;BMP280;62385;41.594;23.808;2022-08-03T14:13:58;95527.84;;;24.46
24160;BMP280;62385;41.594;23.808;2022-08-03T14:16:24;95547.38;;;24.33
24160;BMP280;62385;41.594;23.808;2022-08-03T14:18:49;95523.13;;;24.34
24160;BMP280;62385;41.594;23.808;2022-08-03T14:21:15;95532.34;;;24.00
24160;BMP280;62385;41.594;23.808;2022-08-03T14:23:41;95543.16;;;24.11
24160;BMP280;62385;41.594;23.808;2022-08-03T14:26:07;95557.31;;;24.50
24160;BMP280;62385;41.594;23.808;2022-08-03T14:28:34;95542.25;;;24.37
24160;BMP280;62385;41.594;23.808;2022-08-03T14:31:00;95558.28;;;24.31
24160;BMP280;62385;41.594;23.808;2022-08-03T14:33:26;95552.59;;;24.37
24160;BMP280;62385;41.594;23.808;2022-08-03T14:35:55;95570.78;;;24.38
24160;BMP280;62385;41.594;23.808;2022-08-03T14:38:21;95571.50;;;24.38
24160;BMP280;62385;41.594;23.808;2022-08-03T14:40:47;95559.75;;;24.61
24160;BMP280;62385;41.594;23.808;2022-08-03T14:43:13;95539.69;;;24.84
24160;BMP280;62385;41.594;23.808;2022-08-03T14:45:39;95566.69;;;25.20
24160;BMP280;62385;41.594;23.808;2022-08-03T14:48:05;95569.75;;;24.93
24160;BMP280;62385;41.594;23.808;2022-08-03T14:50:31;95555.16;;;25.08
24160;BMP280;62385;41.594;23.808;2022-08-03T14:52:57;95585.34;;;25.71
24160;BMP280;62385;41.594;23.808;2022-08-03T14:55:41;95575.88;;;26.05